Observations de surface / France / LFRN

Québec | Canada | États-Unis | France | UK | Europe | Ailleurs

Affichage: Infos & localisation pour LFRN | Aide pour décoder les METARs

LFRN RENNES/ST. JACQUES -- FR
Raw surface observations for station LFRN
LFRN 211700Z AUTO 12003KT 6000 NSC 02/M03 Q1025 NOSIG=
LFRN 211630Z AUTO 11003KT 7000 NSC 03/M03 Q1024 NOSIG=
LFRN 211600Z AUTO 09004KT 7000 NSC 04/M03 Q1024 NOSIG=
LFRN 211530Z AUTO 09003KT 060V140 7000 NSC 04/M03 Q1024 NOSIG=
LFRN 211500Z AUTO 09004KT 7000 NSC 04/M03 Q1024 NOSIG=
LFRN 211430Z AUTO VRB02KT 6000 NSC 04/M03 Q1024 NOSIG=
LFRN 211400Z AUTO VRB02KT 6000 NSC 03/M03 Q1025 NOSIG=
LFRN 211330Z AUTO VRB02KT 6000 NSC 03/M03 Q1025 NOSIG=
LFRN 211300Z AUTO VRB02KT 5000 HZ NSC 02/M03 Q1025 NOSIG=
LFRN 211230Z AUTO VRB03KT 5000 BR NSC 01/M03 Q1025 NOSIG=
LFRN 211200Z AUTO 00000KT 4900 HZ NSC 01/M04 Q1026 BECMG 7000 NSW=
LFRN 211130Z AUTO VRB01KT 4700 BR NSC 00/M04 Q1026 BECMG 7000 NSW=
LFRN 211100Z AUTO VRB02KT 4300 BR NSC M01/M04 Q1026 BECMG 7000 NSW=
LFRN 211030Z AUTO 14003KT 110V170 4200 BR NSC M02/M05 Q1027 BECMG 7000 NSW=
LFRN 211000Z AUTO VRB03KT 4300 BR NSC M02/M04 Q1027 BECMG 7000 NSW=
LFRN 210930Z AUTO 00000KT 3400 BR NSC M04/M05 Q1026 BECMG 7000 NSW=
LFRN 210900Z AUTO 00000KT 2900 BR NSC M06/M07 Q1026 BECMG 7000 NSW=
LFRN 210830Z AUTO 35001KT 3100 BR NSC M07/M08 Q1026 BECMG 7000 NSW=
LFRN 210800Z AUTO 01001KT 3100 BR NSC M07/M08 Q1026 BECMG 7000 NSW=
LFRN 210730Z AUTO 00000KT 3400 BR NSC M08/M09 Q1026 BECMG 7000 NSW=
LFRN 210700Z AUTO 16002KT 4100 BR NSC M07/M09 Q1026 NOSIG=
LFRN 210630Z AUTO 00000KT 4300 BR NSC M07/M08 Q1026 NOSIG=
LFRN 210600Z AUTO 00000KT 3900 BR NSC M07/M08 Q1026 NOSIG=
LFRN 210530Z AUTO 02001KT 4400 BR NSC M06/M07 Q1026 NOSIG=
LFRN 210500Z AUTO 36003KT 5000 BR NSC M06/M07 Q1026 NOSIG=
LFRN 210430Z AUTO 35003KT 4900 BR NSC M06/M07 Q1027 NOSIG=
LFRN 210400Z AUTO 36003KT 4800 BR NSC M06/M07 Q1027 NOSIG=
LFRN 210330Z AUTO 02004KT 4800 BR NSC M06/M07 Q1027 NOSIG=
LFRN 210300Z AUTO 02004KT 5000 BR NSC M06/M07 Q1027 NOSIG=
LFRN 210230Z AUTO 07001KT 5000 BR NSC M05/M07 Q1027 NOSIG=
LFRN 210200Z AUTO 08003KT 4900 BR NSC M05/M06 Q1027 NOSIG=
LFRN 210130Z AUTO 09002KT 5000 BR NSC M05/M06 Q1027 NOSIG=
LFRN 210100Z AUTO 09003KT 5000 BR NSC M05/M07 Q1027 NOSIG=
LFRN 210030Z AUTO 08003KT 5000 BR NSC M05/M07 Q1027 NOSIG=
LFRN 210000Z AUTO 08002KT 5000 BR NSC M05/M06 Q1027 NOSIG=
LFRN 202330Z AUTO 09003KT 5000 BR NSC M05/M06 Q1027 NOSIG=
LFRN 202300Z AUTO 09004KT 5000 BR NSC M04/M06 Q1028 NOSIG=
LFRN 202230Z AUTO 10003KT 5000 BR NSC M04/M06 Q1028 NOSIG=
LFRN 202200Z AUTO 09005KT 6000 NSC M04/M06 Q1028 NOSIG=
LFRN 202130Z AUTO 07004KT 5000 BR NSC M04/M06 Q1028 NOSIG=
LFRN 202100Z AUTO 08003KT 6000 NSC M03/M06 Q1028 NOSIG=
LFRN 202030Z AUTO 08003KT 6000 NSC M03/M06 Q1028 NOSIG=
LFRN 202000Z AUTO 09003KT 6000 NSC M03/M06 Q1028 NOSIG=
LFRN 201930Z AUTO 09003KT 6000 NSC M03/M05 Q1028 NOSIG=
LFRN 201900Z AUTO 08003KT 6000 NSC M03/M06 Q1028 NOSIG=
LFRN 201830Z AUTO 10004KT 6000 NSC M02/M05 Q1028 NOSIG=
LFRN 201800Z AUTO 12003KT 7000 NSC M02/M05 Q1028 NOSIG=
LFRN 201730Z AUTO 11005KT 7000 NSC M01/M05 Q1027 NOSIG=
LFRN 201700Z AUTO 10005KT 7000 NSC M01/M05 Q1027 NOSIG=